Time;durP1;ratioP1;P1;durP2;ratioP2;P2;SDS_P1;SDS_P2;PMS_P1;PMS_P2;Temp;Humidity;BMP_temperature;BMP_pressure;BME280_temperature;BME280_humidity;BME280_pressure;Samples;Min_cycle;Max_cycle;Signal;HPM_P1;HPM_P2
2022/11/13 00:00:06;;;;;;;1.00;1.00;;;;;;;;;;4963923;28;20803;-54
2022/11/13 00:02:33;;;;;;;1.00;1.00;;;;;;;;;;4979836;28;20886;-54
2022/11/13 00:04:59;;;;;;;1.00;1.00;;;;;;;;;;4979341;28;20412;-54
2022/11/13 00:07:25;;;;;;;0.90;0.90;;;;;;;;;;4971992;28;20788;-54
2022/11/13 00:09:51;;;;;;;1.00;1.00;;;;;;;;;;4972472;28;20968;-54
2022/11/13 00:12:17;;;;;;;1.20;1.20;;;;;;;;;;4987019;28;20507;-54
2022/11/13 00:14:43;;;;;;;1.02;1.02;;;;;;;;;;4984756;28;20404;-54
2022/11/13 00:17:09;;;;;;;1.10;1.10;;;;;;;;;;4974363;28;20423;-54
2022/11/13 00:19:35;;;;;;;1.20;1.20;;;;;;;;;;4976995;28;20451;-54
2022/11/13 00:22:01;;;;;;;1.30;1.30;;;;;;;;;;4973501;28;20445;-54
2022/11/13 00:24:27;;;;;;;1.30;1.30;;;;;;;;;;4974238;28;20797;-54
2022/11/13 00:26:53;;;;;;;1.20;1.20;;;;;;;;;;4961183;28;20885;-55
2022/11/13 00:29:19;;;;;;;1.00;1.00;;;;;;;;;;4986887;28;20509;-54
2022/11/13 00:31:45;;;;;;;1.10;1.10;;;;;;;;;;4969520;28;20419;-54
2022/11/13 00:34:11;;;;;;;1.00;1.00;;;;;;;;;;4977405;28;20526;-54
2022/11/13 00:36:37;;;;;;;1.10;1.10;;;;;;;;;;4977166;28;20436;-54
2022/11/13 00:39:03;;;;;;;0.70;0.70;;;;;;;;;;4973581;28;20439;-54
2022/11/13 00:41:29;;;;;;;0.70;0.70;;;;;;;;;;4977349;28;20421;-53
2022/11/13 00:43:54;;;;;;;0.80;0.80;;;;;;;;;;4984850;28;20434;-54
2022/11/13 00:46:20;;;;;;;0.80;0.80;;;;;;;;;;4969292;28;20462;-53
2022/11/13 00:48:46;;;;;;;0.80;0.80;;;;;;;;;;4973353;28;20428;-54
2022/11/13 00:51:12;;;;;;;0.70;0.70;;;;;;;;;;4965266;28;20642;-54
2022/11/13 00:53:38;;;;;;;0.80;0.80;;;;;;;;;;4969775;28;20472;-53
2022/11/13 00:56:04;;;;;;;0.70;0.70;;;;;;;;;;4967142;28;20420;-54
2022/11/13 00:58:30;;;;;;;0.80;0.80;;;;;;;;;;4972653;28;20847;-54
2022/11/13 01:00:57;;;;;;;0.80;0.80;;;;;;;;;;4970544;28;20408;-54
2022/11/13 01:03:23;;;;;;;0.70;0.70;;;;;;;;;;4957457;28;20425;-54
2022/11/13 01:05:48;;;;;;;0.70;0.70;;;;;;;;;;4971128;28;20502;-54
2022/11/13 01:08:15;;;;;;;0.70;0.70;;;;;;;;;;4971647;28;20475;-54
2022/11/13 01:10:46;;;;;;;0.80;0.80;;;;;;;;;;4970629;28;20518;-54
2022/11/13 01:13:12;;;;;;;0.70;0.70;;;;;;;;;;4977412;28;20521;-54
2022/11/13 01:15:38;;;;;;;0.70;0.70;;;;;;;;;;4974224;28;20414;-54
2022/11/13 01:18:04;;;;;;;0.82;0.82;;;;;;;;;;4983540;28;20437;-54
2022/11/13 01:20:31;;;;;;;0.80;0.80;;;;;;;;;;4976071;28;20418;-54
2022/11/13 01:22:57;;;;;;;0.82;0.82;;;;;;;;;;4980253;28;21320;-54
2022/11/13 01:25:23;;;;;;;0.65;0.65;;;;;;;;;;4967491;28;20411;-54
2022/11/13 01:27:49;;;;;;;0.88;0.88;;;;;;;;;;4978552;28;20413;-54
2022/11/13 01:30:15;;;;;;;0.70;0.70;;;;;;;;;;4975826;28;20513;-54
2022/11/13 01:32:41;;;;;;;0.90;0.90;;;;;;;;;;4976821;28;20510;-54
2022/11/13 01:35:07;;;;;;;0.80;0.80;;;;;;;;;;4983438;28;20415;-54
2022/11/13 01:37:33;;;;;;;0.70;0.70;;;;;;;;;;4981553;28;20717;-54
2022/11/13 01:39:59;;;;;;;0.63;0.63;;;;;;;;;;4971443;28;20474;-54
2022/11/13 01:42:25;;;;;;;0.68;0.68;;;;;;;;;;4985753;28;20416;-54
2022/11/13 01:44:52;;;;;;;0.70;0.70;;;;;;;;;;4969598;28;20414;-54
2022/11/13 01:47:18;;;;;;;0.80;0.80;;;;;;;;;;4964453;28;20432;-54
2022/11/13 01:49:44;;;;;;;0.80;0.80;;;;;;;;;;4976512;28;20437;-53
2022/11/13 01:52:20;;;;;;;0.80;0.80;;;;;;;;;;4974308;28;20505;-53
2022/11/13 01:54:55;;;;;;;0.70;0.70;;;;;;;;;;4961835;28;20429;-54
2022/11/13 01:57:21;;;;;;;0.70;0.70;;;;;;;;;;4971341;28;21134;-54
2022/11/13 01:59:48;;;;;;;0.80;0.80;;;;;;;;;;4953121;28;20553;-54
2022/11/13 02:02:14;;;;;;;0.77;0.77;;;;;;;;;;4948396;28;20654;-54
2022/11/13 02:04:40;;;;;;;0.80;0.80;;;;;;;;;;4963752;28;20933;-53
2022/11/13 02:07:10;;;;;;;0.70;0.70;;;;;;;;;;4938793;28;21170;-54
2022/11/13 02:09:56;;;;;;;0.73;0.73;;;;;;;;;;4967715;28;20917;-54
2022/11/13 02:12:26;;;;;;;0.70;0.70;;;;;;;;;;4963211;28;22431;-54
2022/11/13 02:14:53;;;;;;;0.70;0.70;;;;;;;;;;4981399;28;20465;-54
2022/11/13 02:17:29;;;;;;;0.80;0.80;;;;;;;;;;4974168;28;20432;-54
2022/11/13 02:19:57;;;;;;;0.88;0.88;;;;;;;;;;4982637;28;21136;-54
2022/11/13 02:22:29;;;;;;;0.70;0.70;;;;;;;;;;4957671;28;20424;-54
2022/11/13 02:24:55;;;;;;;0.70;0.70;;;;;;;;;;4964671;28;20440;-54
2022/11/13 02:27:26;;;;;;;0.70;0.70;;;;;;;;;;4971265;28;20880;-55
2022/11/13 02:29:52;;;;;;;0.70;0.70;;;;;;;;;;4976570;28;20788;-54
2022/11/13 02:32:18;;;;;;;0.80;0.80;;;;;;;;;;4975780;28;20471;-54
2022/11/13 02:34:44;;;;;;;0.80;0.80;;;;;;;;;;4983698;28;20423;-54
2022/11/13 02:37:10;;;;;;;0.70;0.70;;;;;;;;;;4986775;28;20451;-54
2022/11/13 02:39:35;;;;;;;0.70;0.70;;;;;;;;;;4983309;28;20934;-54
2022/11/13 02:42:01;;;;;;;0.80;0.80;;;;;;;;;;4968054;28;20424;-54
2022/11/13 02:44:27;;;;;;;0.80;0.80;;;;;;;;;;4977691;28;20416;-54
2022/11/13 02:46:53;;;;;;;0.80;0.80;;;;;;;;;;4967114;28;20421;-54
2022/11/13 02:49:19;;;;;;;0.70;0.70;;;;;;;;;;4979386;28;20768;-54
2022/11/13 02:51:45;;;;;;;0.70;0.70;;;;;;;;;;4969674;28;21010;-54
2022/11/13 02:54:11;;;;;;;0.80;0.80;;;;;;;;;;4979044;28;20416;-54
2022/11/13 02:56:37;;;;;;;0.73;0.73;;;;;;;;;;4977180;28;20485;-53
2022/11/13 02:59:03;;;;;;;0.70;0.70;;;;;;;;;;4975672;28;21015;-54
2022/11/13 03:01:29;;;;;;;0.70;0.70;;;;;;;;;;4963035;28;20907;-53
2022/11/13 03:03:55;;;;;;;0.70;0.70;;;;;;;;;;4970592;28;20856;-54
2022/11/13 03:06:21;;;;;;;0.70;0.70;;;;;;;;;;4984408;28;20886;-54
2022/11/13 03:08:47;;;;;;;0.80;0.80;;;;;;;;;;4972573;28;20892;-53
2022/11/13 03:11:13;;;;;;;0.80;0.80;;;;;;;;;;4966045;28;21582;-53
2022/11/13 03:13:40;;;;;;;0.70;0.70;;;;;;;;;;4981297;28;20422;-54
2022/11/13 03:16:15;;;;;;;0.80;0.80;;;;;;;;;;4974624;28;20447;-54
2022/11/13 03:18:41;;;;;;;0.80;0.80;;;;;;;;;;4990707;28;20443;-54
2022/11/13 03:21:08;;;;;;;0.80;0.80;;;;;;;;;;4975467;28;20406;-54
2022/11/13 03:23:34;;;;;;;0.75;0.75;;;;;;;;;;4983965;28;20405;-53
2022/11/13 03:26:04;;;;;;;0.70;0.70;;;;;;;;;;4975963;28;20430;-55
2022/11/13 03:28:29;;;;;;;0.70;0.70;;;;;;;;;;4971787;28;20517;-54
2022/11/13 03:30:55;;;;;;;0.70;0.70;;;;;;;;;;4981939;28;20470;-54
2022/11/13 03:33:21;;;;;;;0.80;0.80;;;;;;;;;;4975483;28;20503;-54
2022/11/13 03:35:47;;;;;;;0.73;0.73;;;;;;;;;;4979735;28;20581;-54
2022/11/13 03:38:13;;;;;;;0.80;0.80;;;;;;;;;;4971590;28;20555;-54
2022/11/13 03:40:39;;;;;;;0.70;0.70;;;;;;;;;;4972237;28;20413;-54
2022/11/13 03:43:05;;;;;;;0.80;0.80;;;;;;;;;;4979136;28;20845;-54
2022/11/13 03:45:31;;;;;;;0.80;0.80;;;;;;;;;;4973818;28;20525;-54
2022/11/13 03:47:57;;;;;;;0.70;0.70;;;;;;;;;;4975916;28;20541;-54
2022/11/13 03:50:23;;;;;;;0.73;0.73;;;;;;;;;;4964635;28;20435;-54
2022/11/13 03:52:49;;;;;;;0.80;0.80;;;;;;;;;;4991237;28;20870;-54
2022/11/13 03:55:15;;;;;;;0.80;0.80;;;;;;;;;;4974016;28;20759;-54
2022/11/13 03:57:41;;;;;;;0.70;0.70;;;;;;;;;;4988517;28;20763;-55
2022/11/13 04:00:07;;;;;;;0.70;0.70;;;;;;;;;;4959751;28;20434;-54
2022/11/13 04:02:33;;;;;;;0.70;0.70;;;;;;;;;;4967959;28;20418;-54
2022/11/13 04:04:59;;;;;;;0.70;0.70;;;;;;;;;;4970242;28;20502;-54
2022/11/13 04:07:25;;;;;;;0.80;0.80;;;;;;;;;;4982002;28;21027;-54
2022/11/13 04:09:51;;;;;;;0.80;0.80;;;;;;;;;;4971797;28;20422;-54
2022/11/13 04:12:17;;;;;;;0.80;0.80;;;;;;;;;;4974463;28;20497;-54
2022/11/13 04:14:43;;;;;;;0.70;0.70;;;;;;;;;;4992460;28;20956;-54
2022/11/13 04:17:09;;;;;;;0.70;0.70;;;;;;;;;;4993705;28;21112;-54
2022/11/13 04:19:35;;;;;;;0.70;0.70;;;;;;;;;;5007487;28;20424;-53
2022/11/13 04:22:01;;;;;;;0.70;0.70;;;;;;;;;;5014685;28;20492;-54
2022/11/13 04:24:27;;;;;;;0.82;0.82;;;;;;;;;;5010826;28;20431;-54
2022/11/13 04:26:53;;;;;;;0.90;0.90;;;;;;;;;;5015892;28;20489;-54
2022/11/13 04:29:19;;;;;;;0.93;0.93;;;;;;;;;;5012047;28;20646;-54
2022/11/13 04:31:44;;;;;;;0.90;0.90;;;;;;;;;;5011965;28;20415;-54
2022/11/13 04:34:10;;;;;;;1.13;1.13;;;;;;;;;;5004134;28;20437;-54
2022/11/13 04:36:36;;;;;;;0.90;0.90;;;;;;;;;;4998539;28;20458;-54
2022/11/13 04:39:02;;;;;;;0.90;0.90;;;;;;;;;;5014726;28;20434;-54
2022/11/13 04:44:13;;;;;;;0.98;0.98;;;;;;;;;;5005421;28;21097;-54
2022/11/13 04:46:39;;;;;;;0.90;0.90;;;;;;;;;;5010758;28;20433;-54
2022/11/13 04:49:05;;;;;;;0.98;0.98;;;;;;;;;;5001490;28;20931;-54
2022/11/13 04:51:31;;;;;;;1.00;1.00;;;;;;;;;;5008076;28;20890;-54
2022/11/13 04:53:57;;;;;;;0.90;0.90;;;;;;;;;;5016904;28;20403;-54
2022/11/13 04:56:23;;;;;;;1.00;1.00;;;;;;;;;;5004107;28;20514;-54
2022/11/13 04:58:49;;;;;;;0.90;0.90;;;;;;;;;;5004624;28;20422;-54
2022/11/13 05:01:15;;;;;;;0.93;0.93;;;;;;;;;;5001426;28;20425;-54
2022/11/13 05:03:41;;;;;;;0.90;0.90;;;;;;;;;;5001792;28;20432;-54
2022/11/13 05:06:07;;;;;;;1.10;1.10;;;;;;;;;;5017397;28;20987;-54
2022/11/13 05:08:33;;;;;;;1.20;1.20;;;;;;;;;;5021136;28;21711;-53
2022/11/13 05:10:59;;;;;;;1.10;1.10;;;;;;;;;;5011639;28;20459;-54
2022/11/13 05:13:25;;;;;;;1.05;1.05;;;;;;;;;;5022896;28;20425;-53
2022/11/13 05:15:51;;;;;;;1.00;1.00;;;;;;;;;;5006324;28;20647;-54
2022/11/13 05:18:17;;;;;;;1.00;1.00;;;;;;;;;;5011052;28;20431;-53
2022/11/13 05:20:43;;;;;;;0.90;0.90;;;;;;;;;;5014168;28;20484;-54
2022/11/13 05:23:09;;;;;;;0.80;0.80;;;;;;;;;;5024175;28;20420;-54
2022/11/13 05:25:35;;;;;;;0.90;0.90;;;;;;;;;;5005681;28;20924;-53
2022/11/13 05:28:01;;;;;;;0.70;0.70;;;;;;;;;;5001189;28;20494;-54
2022/11/13 05:30:27;;;;;;;0.80;0.80;;;;;;;;;;5015584;28;20434;-54
2022/11/13 05:32:53;;;;;;;0.90;0.90;;;;;;;;;;5017745;28;20889;-54
2022/11/13 05:35:19;;;;;;;0.80;0.80;;;;;;;;;;5019935;28;20900;-54
2022/11/13 05:37:45;;;;;;;0.80;0.80;;;;;;;;;;5027810;28;20436;-54
2022/11/13 05:40:11;;;;;;;0.90;0.90;;;;;;;;;;5004808;28;20498;-53
2022/11/13 05:42:37;;;;;;;0.80;0.80;;;;;;;;;;5010632;28;20428;-54
2022/11/13 05:45:03;;;;;;;0.90;0.90;;;;;;;;;;5001174;28;20428;-54
2022/11/13 05:47:29;;;;;;;1.00;1.00;;;;;;;;;;4996344;28;20517;-54
2022/11/13 05:49:55;;;;;;;1.00;1.00;;;;;;;;;;5008109;28;20427;-54
2022/11/13 05:52:21;;;;;;;1.20;1.20;;;;;;;;;;5001478;28;20476;-53
2022/11/13 05:54:47;;;;;;;1.10;1.10;;;;;;;;;;5014142;28;20422;-54
2022/11/13 05:57:13;;;;;;;0.90;0.90;;;;;;;;;;5008506;28;22209;-53
2022/11/13 05:59:39;;;;;;;1.00;1.00;;;;;;;;;;5010694;28;20442;-54
2022/11/13 06:02:05;;;;;;;1.10;1.10;;;;;;;;;;5009646;28;20427;-54
2022/11/13 06:04:30;;;;;;;0.90;0.90;;;;;;;;;;5001062;28;20610;-54
2022/11/13 06:06:56;;;;;;;0.70;0.70;;;;;;;;;;5010163;28;20599;-54
2022/11/13 06:09:22;;;;;;;0.80;0.80;;;;;;;;;;4999821;28;20486;-54
2022/11/13 06:11:48;;;;;;;0.87;0.87;;;;;;;;;;5012265;28;20421;-54
2022/11/13 06:14:14;;;;;;;0.70;0.70;;;;;;;;;;5016032;28;20488;-54
2022/11/13 06:16:40;;;;;;;0.70;0.70;;;;;;;;;;5007585;28;20462;-54
2022/11/13 06:19:07;;;;;;;0.70;0.70;;;;;;;;;;5018525;28;20437;-54
2022/11/13 06:21:33;;;;;;;0.88;0.88;;;;;;;;;;5027072;28;20433;-54
2022/11/13 06:23:59;;;;;;;0.80;0.80;;;;;;;;;;5009865;28;20503;-54
2022/11/13 06:26:27;;;;;;;0.82;0.82;;;;;;;;;;5020099;28;20431;-53
2022/11/13 06:28:53;;;;;;;0.82;0.82;;;;;;;;;;5012854;28;20413;-54
2022/11/13 06:31:20;;;;;;;0.90;0.90;;;;;;;;;;5012900;28;20512;-54
2022/11/13 06:33:46;;;;;;;0.80;0.80;;;;;;;;;;5020271;28;20425;-53
2022/11/13 06:36:13;;;;;;;0.90;0.90;;;;;;;;;;5024309;28;20425;-54
2022/11/13 06:38:39;;;;;;;0.70;0.70;;;;;;;;;;5024246;28;20435;-53
2022/11/13 06:41:05;;;;;;;0.70;0.70;;;;;;;;;;5016589;28;20412;-54
2022/11/13 06:43:31;;;;;;;0.70;0.70;;;;;;;;;;5019048;28;20511;-54
2022/11/13 06:45:57;;;;;;;0.70;0.70;;;;;;;;;;5015308;28;20421;-53
2022/11/13 06:48:23;;;;;;;0.65;0.65;;;;;;;;;;5020107;28;20429;-54
2022/11/13 06:50:49;;;;;;;0.63;0.63;;;;;;;;;;5024777;28;20434;-54
2022/11/13 06:53:15;;;;;;;0.80;0.80;;;;;;;;;;5018575;28;20770;-54
2022/11/13 06:55:48;;;;;;;0.75;0.75;;;;;;;;;;5013934;28;20420;-54
2022/11/13 06:58:14;;;;;;;0.97;0.97;;;;;;;;;;5015174;28;20474;-54
2022/11/13 07:00:40;;;;;;;0.70;0.70;;;;;;;;;;5016470;28;20542;-54
2022/11/13 07:03:06;;;;;;;0.70;0.70;;;;;;;;;;5025492;28;20414;-54
2022/11/13 07:05:35;;;;;;;0.70;0.70;;;;;;;;;;5011183;28;20739;-54
2022/11/13 07:08:01;;;;;;;0.70;0.70;;;;;;;;;;5003477;28;20802;-54
2022/11/13 07:10:27;;;;;;;0.70;0.70;;;;;;;;;;5000366;28;20519;-54
2022/11/13 07:12:53;;;;;;;0.80;0.80;;;;;;;;;;5014941;28;21652;-54
2022/11/13 07:15:19;;;;;;;0.70;0.70;;;;;;;;;;5009899;28;20405;-53
2022/11/13 07:17:45;;;;;;;0.85;0.85;;;;;;;;;;5002013;28;20429;-54
2022/11/13 07:20:11;;;;;;;0.70;0.70;;;;;;;;;;5013089;28;20485;-54
2022/11/13 07:22:37;;;;;;;0.80;0.80;;;;;;;;;;5031493;28;20401;-54
2022/11/13 07:25:03;;;;;;;0.77;0.77;;;;;;;;;;4994373;28;20939;-54
2022/11/13 07:27:29;;;;;;;0.90;0.90;;;;;;;;;;5002373;28;20423;-54
2022/11/13 07:29:54;;;;;;;0.80;0.80;;;;;;;;;;5009249;28;20413;-54
2022/11/13 07:32:20;;;;;;;0.90;0.90;;;;;;;;;;4983256;28;20420;-54
2022/11/13 07:34:46;;;;;;;0.90;0.90;;;;;;;;;;5005518;28;20425;-53
2022/11/13 07:37:12;;;;;;;0.70;0.70;;;;;;;;;;4999233;28;20433;-53
2022/11/13 07:39:38;;;;;;;0.80;0.80;;;;;;;;;;5010147;28;20423;-54
2022/11/13 07:42:04;;;;;;;0.70;0.70;;;;;;;;;;5004798;28;20482;-54
2022/11/13 07:44:30;;;;;;;0.70;0.70;;;;;;;;;;4991955;28;20405;-54
2022/11/13 07:46:56;;;;;;;0.70;0.70;;;;;;;;;;4980252;28;20465;-54
2022/11/13 07:49:22;;;;;;;0.70;0.70;;;;;;;;;;4984456;28;20430;-54
2022/11/13 07:51:48;;;;;;;0.70;0.70;;;;;;;;;;4988771;28;20425;-54
2022/11/13 07:54:14;;;;;;;0.70;0.70;;;;;;;;;;4979543;28;20518;-53
2022/11/13 07:56:40;;;;;;;0.70;0.70;;;;;;;;;;4995731;28;20502;-54
2022/11/13 07:59:06;;;;;;;0.82;0.82;;;;;;;;;;5018714;28;20471;-54
2022/11/13 08:01:32;;;;;;;0.80;0.80;;;;;;;;;;5025780;28;20410;-54
2022/11/13 08:03:58;;;;;;;0.70;0.70;;;;;;;;;;5014761;28;20958;-53
2022/11/13 08:06:26;;;;;;;0.80;0.80;;;;;;;;;;5028657;28;20909;-54
2022/11/13 08:08:52;;;;;;;0.80;0.80;;;;;;;;;;5006807;28;20413;-54
2022/11/13 08:11:18;;;;;;;0.80;0.80;;;;;;;;;;5001413;28;20799;-54
2022/11/13 08:13:44;;;;;;;0.70;0.70;;;;;;;;;;5003919;28;21038;-54
2022/11/13 08:16:10;;;;;;;0.80;0.80;;;;;;;;;;5016419;28;20412;-54
2022/11/13 08:18:36;;;;;;;0.80;0.80;;;;;;;;;;5026295;28;20426;-54
2022/11/13 08:21:02;;;;;;;0.80;0.80;;;;;;;;;;4990558;28;20431;-54
2022/11/13 08:23:28;;;;;;;0.80;0.80;;;;;;;;;;4976215;28;20413;-54
2022/11/13 08:25:54;;;;;;;0.80;0.80;;;;;;;;;;5006228;28;20435;-54
2022/11/13 08:28:20;;;;;;;0.90;0.90;;;;;;;;;;4989716;28;20454;-54
2022/11/13 08:30:46;;;;;;;0.80;0.80;;;;;;;;;;5004183;28;20452;-54
2022/11/13 08:33:12;;;;;;;0.80;0.80;;;;;;;;;;4985594;28;20430;-54
2022/11/13 08:35:38;;;;;;;0.88;0.88;;;;;;;;;;5002285;28;20431;-54
2022/11/13 08:38:04;;;;;;;0.80;0.80;;;;;;;;;;4979298;28;20435;-54
2022/11/13 08:40:30;;;;;;;0.80;0.80;;;;;;;;;;4985602;28;20415;-54
2022/11/13 08:43:00;;;;;;;0.70;0.70;;;;;;;;;;5000937;28;20407;-55
2022/11/13 08:45:26;;;;;;;0.70;0.70;;;;;;;;;;4983402;28;22210;-55
2022/11/13 08:47:52;;;;;;;0.70;0.70;;;;;;;;;;4976827;28;20460;-54
2022/11/13 08:50:18;;;;;;;0.90;0.90;;;;;;;;;;4999994;28;20896;-55
2022/11/13 08:52:44;;;;;;;0.90;0.90;;;;;;;;;;4999094;28;20985;-54
2022/11/13 08:55:10;;;;;;;0.80;0.80;;;;;;;;;;5016971;28;21139;-54
2022/11/13 08:57:36;;;;;;;0.95;0.95;;;;;;;;;;5019613;28;20470;-54
2022/11/13 09:00:02;;;;;;;0.70;0.70;;;;;;;;;;5016777;28;20492;-55
2022/11/13 09:02:28;;;;;;;0.80;0.80;;;;;;;;;;5016346;28;20418;-55
2022/11/13 09:04:53;;;;;;;0.70;0.70;;;;;;;;;;4983690;28;20841;-54
2022/11/13 09:07:19;;;;;;;1.00;1.00;;;;;;;;;;4979583;28;20421;-54
2022/11/13 09:09:45;;;;;;;1.17;1.17;;;;;;;;;;4991416;28;20426;-54
2022/11/13 09:12:11;;;;;;;1.23;1.23;;;;;;;;;;5002108;28;20418;-54
2022/11/13 09:14:37;;;;;;;1.00;1.00;;;;;;;;;;5005534;28;20585;-54
2022/11/13 09:17:03;;;;;;;1.20;1.20;;;;;;;;;;4984254;28;20923;-54
2022/11/13 09:19:29;;;;;;;0.80;0.80;;;;;;;;;;5006231;28;20578;-55
2022/11/13 09:21:55;;;;;;;0.90;0.90;;;;;;;;;;5011534;28;20624;-55
2022/11/13 09:24:21;;;;;;;1.00;1.00;;;;;;;;;;5011303;28;20465;-55
2022/11/13 09:26:47;;;;;;;0.70;0.70;;;;;;;;;;5016508;28;20432;-55
2022/11/13 09:29:13;;;;;;;0.90;0.90;;;;;;;;;;5012105;28;20894;-55
2022/11/13 09:31:39;;;;;;;0.80;0.80;;;;;;;;;;5008733;28;20791;-55
2022/11/13 09:34:06;;;;;;;0.70;0.70;;;;;;;;;;5024675;28;21810;-55
2022/11/13 09:36:32;;;;;;;0.60;0.60;;;;;;;;;;5013220;28;20428;-55
2022/11/13 09:38:59;;;;;;;0.63;0.63;;;;;;;;;;5003905;28;20927;-54
2022/11/13 09:41:27;;;;;;;0.70;0.70;;;;;;;;;;5009453;28;20462;-55
2022/11/13 09:43:53;;;;;;;0.70;0.70;;;;;;;;;;5017933;28;20949;-55
2022/11/13 09:46:40;;;;;;;0.60;0.60;;;;;;;;;;5022707;28;20453;-55
2022/11/13 09:49:22;;;;;;;0.60;0.60;;;;;;;;;;4978872;28;21051;-55
2022/11/13 09:51:52;;;;;;;0.60;0.60;;;;;;;;;;4989312;28;20839;-55
2022/11/13 09:54:19;;;;;;;0.70;0.70;;;;;;;;;;5012086;28;20434;-55
2022/11/13 09:56:56;;;;;;;0.60;0.60;;;;;;;;;;5017890;28;20757;-55
2022/11/13 09:59:25;;;;;;;0.70;0.70;;;;;;;;;;5003580;28;20515;-54
2022/11/13 10:02:09;;;;;;;0.70;0.70;;;;;;;;;;4990024;28;20973;-55
2022/11/13 10:04:35;;;;;;;0.70;0.70;;;;;;;;;;4949197;28;21005;-54
2022/11/13 10:07:18;;;;;;;0.70;0.70;;;;;;;;;;4989663;28;20791;-54
2022/11/13 10:09:56;;;;;;;0.67;0.67;;;;;;;;;;4988008;28;20746;-55
2022/11/13 10:12:22;;;;;;;0.80;0.80;;;;;;;;;;4999326;28;20450;-55
2022/11/13 10:14:49;;;;;;;0.70;0.70;;;;;;;;;;5012119;28;20412;-54
2022/11/13 10:17:21;;;;;;;1.10;1.10;;;;;;;;;;5019156;28;21249;-55
2022/11/13 10:19:54;;;;;;;0.60;0.60;;;;;;;;;;5020566;28;20454;-55
2022/11/13 10:22:39;;;;;;;0.70;0.70;;;;;;;;;;4993326;28;20582;-54
2022/11/13 10:25:13;;;;;;;0.60;0.60;;;;;;;;;;5002494;28;20426;-55
2022/11/13 10:27:39;;;;;;;0.88;0.88;;;;;;;;;;5011191;28;20431;-54
2022/11/13 10:30:15;;;;;;;0.70;0.70;;;;;;;;;;5009948;28;20410;-55
2022/11/13 10:32:41;;;;;;;1.10;1.10;;;;;;;;;;4993637;28;20453;-55
2022/11/13 10:35:07;;;;;;;1.00;1.00;;;;;;;;;;5019502;28;20872;-55
2022/11/13 10:37:44;;;;;;;0.60;0.60;;;;;;;;;;5014676;28;21532;-54
2022/11/13 10:40:10;;;;;;;1.10;1.10;;;;;;;;;;4993218;28;20662;-56
2022/11/13 10:42:36;;;;;;;;;;;;;;;;;;5018798;28;20040;-55
2022/11/13 10:45:02;;;;;;;;;;;;;;;;;;5016859;28;19916;-55
2022/11/13 10:47:28;;;;;;;;;;;;;;;;;;5005910;28;20008;-56
2022/11/13 10:49:54;;;;;;;;;;;;;;;;;;5025761;28;20439;-56
2022/11/13 10:52:20;;;;;;;;;;;;;;;;;;5016965;28;19913;-55
2022/11/13 10:54:46;;;;;;;;;;;;;;;;;;5012922;28;19988;-55
2022/11/13 10:57:11;;;;;;;;;;;;;;;;;;5011939;28;20425;-55
2022/11/13 10:59:37;;;;;;;;;;;;;;;;;;5001785;28;19924;-55
2022/11/13 11:02:03;;;;;;;;;;;;;;;;;;5016049;28;19928;-55
2022/11/13 11:04:29;;;;;;;;;;;;;;;;;;5011941;28;19959;-56
2022/11/13 11:06:55;;;;;;;;;;;;;;;;;;5000771;28;20348;-55
2022/11/13 11:09:21;;;;;;;;;;;;;;;;;;5008155;28;20416;-55
2022/11/13 11:14:31;;;;;;;;;;;;;;;;;;5018079;28;20368;-55
2022/11/13 11:16:57;;;;;;;;;;;;;;;;;;5007297;28;20361;-54
2022/11/13 11:19:23;;;;;;;;;;;;;;;;;;5028660;28;19920;-54
2022/11/13 11:21:49;;;;;;;;;;;;;;;;;;5008405;28;20733;-55
2022/11/13 11:24:15;;;;;;;;;;;;;;;;;;5020975;28;19920;-54
2022/11/13 11:26:41;;;;;;;;;;;;;;;;;;5024804;28;20399;-54
2022/11/13 11:29:07;;;;;;;;;;;;;;;;;;5012889;28;19917;-55
2022/11/13 11:31:33;;;;;;;;;;;;;;;;;;5027956;28;19964;-54
2022/11/13 11:33:58;;;;;;;;;;;;;;;;;;5027275;28;19920;-54
2022/11/13 11:36:24;;;;;;;;;;;;;;;;;;5003096;28;19930;-54
2022/11/13 11:38:52;;;;;;;;;;;;;;;;;;4996759;28;24259;-55
2022/11/13 11:41:18;;;;;;;;;;;;;;;;;;4980376;28;20398;-54
2022/11/13 11:43:44;;;;;;;;;;;;;;;;;;4994767;28;19925;-54
2022/11/13 11:46:09;;;;;;;;;;;;;;;;;;4985736;28;19925;-54
2022/11/13 11:48:35;;;;;;;;;;;;;;;;;;5001532;28;21683;-54
2022/11/13 11:51:01;;;;;;;;;;;;;;;;;;4995011;28;20076;-54
2022/11/13 11:53:27;;;;;;;;;;;;;;;;;;4994271;28;19925;-56
2022/11/13 11:55:53;;;;;;;;;;;;;;;;;;4998631;28;19925;-55
2022/11/13 11:58:19;;;;;;;;;;;;;;;;;;5005579;28;19929;-55
2022/11/13 12:00:45;;;;;;;;;;;;;;;;;;4987103;28;19921;-55
2022/11/13 12:03:11;;;;;;;;;;;;;;;;;;5002653;28;20286;-55
2022/11/13 12:05:36;;;;;;;;;;;;;;;;;;4993080;28;20311;-55
2022/11/13 12:08:03;;;;;;;;;;;;;;;;;;5001971;28;19960;-56
2022/11/13 12:10:28;;;;;;;;;;;;;;;;;;4996582;28;20521;-57
2022/11/13 12:12:54;;;;;;;;;;;;;;;;;;4992917;28;20109;-55
2022/11/13 12:15:20;;;;;;;;;;;;;;;;;;4990229;28;19932;-56
2022/11/13 12:17:46;;;;;;;;;;;;;;;;;;5013227;28;19929;-56
2022/11/13 12:20:13;;;;;;;;;;;;;;;;;;5001686;28;19921;-56
2022/11/13 12:22:42;;;;;;;;;;;;;;;;;;5000728;28;19921;-55
2022/11/13 12:25:08;;;;;;;;;;;;;;;;;;5012915;28;19918;-55
2022/11/13 12:27:34;;;;;;;;;;;;;;;;;;4989813;28;19923;-56
2022/11/13 12:30:00;;;;;;;;;;;;;;;;;;5024659;28;19917;-56
2022/11/13 12:32:26;;;;;;;;;;;;;;;;;;5010632;28;19925;-55
2022/11/13 12:34:51;;;;;;;;;;;;;;;;;;4998367;28;20239;-55
2022/11/13 12:37:17;;;;;;;;;;;;;;;;;;5018867;28;19932;-55
2022/11/13 12:39:43;;;;;;;;;;;;;;;;;;5002219;28;20423;-55
2022/11/13 12:42:09;;;;;;;;;;;;;;;;;;4993971;28;19924;-55
2022/11/13 12:44:35;;;;;;;;;;;;;;;;;;4996651;28;20659;-55
2022/11/13 12:47:01;;;;;;;;;;;;;;;;;;5003242;28;19918;-56
2022/11/13 12:49:27;;;;;;;;;;;;;;;;;;5020340;28;20023;-55
2022/11/13 12:51:53;;;;;;;;;;;;;;;;;;5021624;28;19921;-55
2022/11/13 12:54:19;;;;;;;;;;;;;;;;;;5001613;28;19933;-55
2022/11/13 12:56:44;;;;;;;;;;;;;;;;;;5011898;28;20014;-55
2022/11/13 12:59:10;;;;;;;;;;;;;;;;;;5005963;28;19937;-55
2022/11/13 13:01:36;;;;;;;;;;;;;;;;;;5008462;28;19928;-55
2022/11/13 13:04:02;;;;;;;;;;;;;;;;;;5004132;28;19924;-55
2022/11/13 13:06:28;;;;;;;;;;;;;;;;;;5015999;28;20488;-55
2022/11/13 13:08:54;;;;;;;;;;;;;;;;;;5009790;28;20385;-56
2022/11/13 13:11:20;;;;;;;;;;;;;;;;;;4981281;28;19918;-54
2022/11/13 13:13:45;;;;;;;;;;;;;;;;;;5008920;28;19928;-54
2022/11/13 13:16:12;;;;;;;;;;;;;;;;;;5006657;28;19921;-54
2022/11/13 13:18:37;;;;;;;;;;;;;;;;;;5013967;28;19933;-53
2022/11/13 13:21:05;;;;;;;;;;;;;;;;;;5020570;28;19924;-54
2022/11/13 13:23:30;;;;;;;;;;;;;;;;;;5032164;28;19931;-54
2022/11/13 13:25:56;;;;;;;;;;;;;;;;;;5011570;28;20364;-54
2022/11/13 13:28:22;;;;;;;;;;;;;;;;;;5021524;28;20021;-54
2022/11/13 13:30:48;;;;;;;;;;;;;;;;;;5013567;28;19924;-55
2022/11/13 13:33:14;;;;;;;;;;;;;;;;;;4982184;28;19922;-54
2022/11/13 13:35:40;;;;;;;;;;;;;;;;;;5024032;28;20409;-54
2022/11/13 13:38:06;;;;;;;;;;;;;;;;;;5028875;28;19933;-55
2022/11/13 13:40:31;;;;;;;;;;;;;;;;;;4996343;28;19992;-54
2022/11/13 13:42:57;;;;;;;;;;;;;;;;;;5013645;28;19921;-55
2022/11/13 13:45:23;;;;;;;;;;;;;;;;;;5013238;28;19925;-55
2022/11/13 13:47:49;;;;;;;;;;;;;;;;;;5016341;28;19926;-55
2022/11/13 13:50:15;;;;;;;;;;;;;;;;;;5011566;28;19921;-53
2022/11/13 13:52:41;;;;;;;;;;;;;;;;;;5002996;28;20414;-54
2022/11/13 13:55:09;;;;;;;;;;;;;;;;;;5002265;28;19995;-54
2022/11/13 13:57:35;;;;;;;;;;;;;;;;;;5010846;28;20406;-54
2022/11/13 14:00:01;;;;;;;;;;;;;;;;;;5008857;28;19921;-55
2022/11/13 14:02:27;;;;;;;;;;;;;;;;;;5017212;28;20587;-54
2022/11/13 14:04:53;;;;;;;;;;;;;;;;;;5005964;28;19923;-55
2022/11/13 14:07:19;;;;;;;;;;;;;;;;;;4993950;28;20390;-55
2022/11/13 14:09:45;;;;;;;;;;;;;;;;;;5013345;28;20019;-55
2022/11/13 14:12:11;;;;;;;;;;;;;;;;;;5017562;28;19955;-55
2022/11/13 14:14:37;;;;;;;;;;;;;;;;;;5015578;28;19932;-52
2022/11/13 14:17:03;;;;;;;;;;;;;;;;;;5005522;28;20434;-53
2022/11/13 14:19:28;;;;;;;;;;;;;;;;;;5010039;28;19929;-55
2022/11/13 14:21:54;;;;;;;;;;;;;;;;;;5016835;28;19921;-54
2022/11/13 14:24:20;;;;;;;;;;;;;;;;;;5000648;28;19925;-54
2022/11/13 14:26:46;;;;;;;;;;;;;;;;;;4991221;28;20024;-54
2022/11/13 14:29:12;;;;;;;;;;;;;;;;;;4999131;28;19926;-53
2022/11/13 14:31:38;;;;;;;;;;;;;;;;;;5010612;28;19925;-54
2022/11/13 14:34:04;;;;;;;;;;;;;;;;;;4975173;28;20004;-53
2022/11/13 14:36:30;;;;;;;;;;;;;;;;;;5019779;28;20363;-54
2022/11/13 14:38:56;;;;;;;;;;;;;;;;;;5010280;28;19920;-54
2022/11/13 14:41:22;;;;;;;;;;;;;;;;;;5014948;28;19939;-54
2022/11/13 14:43:48;;;;;;;;;;;;;;;;;;4996583;28;19928;-54
2022/11/13 14:46:14;;;;;;;;;;;;;;;;;;5004182;28;19970;-53
2022/11/13 14:48:40;;;;;;;;;;;;;;;;;;4990462;28;19958;-55
2022/11/13 14:51:06;;;;;;;;;;;;;;;;;;5011082;28;21033;-55
2022/11/13 14:53:32;;;;;;;;;;;;;;;;;;5000905;28;19921;-54
2022/11/13 14:55:57;;;;;;;;;;;;;;;;;;4996152;28;19975;-55
2022/11/13 14:58:23;;;;;;;;;;;;;;;;;;5015659;28;19925;-54
2022/11/13 15:00:49;;;;;;;;;;;;;;;;;;5005335;28;20267;-56
2022/11/13 15:03:15;;;;;;;;;;;;;;;;;;5004091;28;19925;-54
2022/11/13 15:05:41;;;;;;;;;;;;;;;;;;4995017;28;19920;-54
2022/11/13 15:08:07;;;;;;;;;;;;;;;;;;5008695;28;19963;-55
2022/11/13 15:10:33;;;;;;;;;;;;;;;;;;5000288;28;19925;-55
2022/11/13 15:12:59;;;;;;;;;;;;;;;;;;5019662;28;19921;-55
2022/11/13 15:15:25;;;;;;;;;;;;;;;;;;5005568;28;20474;-54
2022/11/13 15:17:51;;;;;;;;;;;;;;;;;;4997872;28;20369;-54